Time;durP1;ratioP1;P1;durP2;ratioP2;P2;SDS_P1;SDS_P2;PMS_P1;PMS_P2;Temp;Humidity;BMP_temperature;BMP_pressure;BME280_temperature;BME280_humidity;BME280_pressure;Samples;Min_cycle;Max_cycle;Signal;HPM_P1;HPM_P2
2023/12/04 00:01:03;;;;;;;;;;;22.00;63.70;;;;;;5101047;28;20686;-38
2023/12/04 00:03:29;;;;;;;;;;;22.00;63.60;;;;;;5101990;28;19916;-38
2023/12/04 00:05:55;;;;;;;;;;;22.00;63.60;;;;;;5098067;28;19915;-38
2023/12/04 00:08:21;;;;;;;;;;;22.00;63.60;;;;;;5094667;28;19908;-38
2023/12/04 00:10:47;;;;;;;;;;;22.00;63.50;;;;;;5102975;28;19999;-38
2023/12/04 00:13:14;;;;;;;;;;;22.00;63.50;;;;;;5101443;28;19919;-38
2023/12/04 00:15:40;;;;;;;;;;;22.00;63.40;;;;;;5102478;28;19915;-38
2023/12/04 00:18:07;;;;;;;;;;;22.00;63.50;;;;;;5100641;28;20303;-39
2023/12/04 00:20:33;;;;;;;;;;;22.00;63.50;;;;;;5101131;28;19908;-38
2023/12/04 00:22:59;;;;;;;;;;;22.00;63.50;;;;;;5104247;28;19975;-41
2023/12/04 00:25:25;;;;;;;;;;;22.00;63.50;;;;;;5104138;28;20459;-40
2023/12/04 00:27:51;;;;;;;;;;;22.00;63.50;;;;;;5098385;28;19920;-40
2023/12/04 00:30:17;;;;;;;;;;;22.00;63.50;;;;;;5103945;28;19908;-39
2023/12/04 00:32:43;;;;;;;;;;;22.00;63.50;;;;;;5109367;28;19964;-40
2023/12/04 00:35:10;;;;;;;;;;;22.00;63.50;;;;;;5105898;28;20286;-40
2023/12/04 00:37:38;;;;;;;;;;;22.00;63.50;;;;;;5104535;28;19911;-40
2023/12/04 00:40:05;;;;;;;;;;;22.00;63.60;;;;;;5098665;28;19968;-40
2023/12/04 00:42:31;;;;;;;;;;;22.00;63.60;;;;;;5096469;28;19927;-41
2023/12/04 00:44:58;;;;;;;;;;;22.00;63.60;;;;;;5094748;28;19920;-40
2023/12/04 00:47:24;;;;;;;;;;;22.00;63.70;;;;;;5101672;28;20272;-40
2023/12/04 00:49:50;;;;;;;;;;;22.00;63.70;;;;;;5103236;28;20097;-40
2023/12/04 00:52:16;;;;;;;;;;;22.00;63.70;;;;;;5097124;28;19943;-40
2023/12/04 00:54:42;;;;;;;;;;;22.00;63.80;;;;;;5100212;28;19943;-40
2023/12/04 00:57:09;;;;;;;;;;;22.00;63.80;;;;;;5100984;28;19930;-40
2023/12/04 00:59:35;;;;;;;;;;;22.00;63.70;;;;;;5095546;28;19912;-41
2023/12/04 01:02:01;;;;;;;;;;;21.90;63.60;;;;;;5097360;28;19959;-40
2023/12/04 01:04:28;;;;;;;;;;;22.00;63.60;;;;;;5099191;28;19999;-41
2023/12/04 01:06:55;;;;;;;;;;;22.00;63.60;;;;;;5095210;28;19908;-40
2023/12/04 01:09:24;;;;;;;;;;;22.00;63.50;;;;;;5095306;28;20381;-41
2023/12/04 01:11:53;;;;;;;;;;;22.00;63.50;;;;;;5081372;28;19961;-41
2023/12/04 01:14:20;;;;;;;;;;;22.00;63.50;;;;;;5093481;28;19923;-40
2023/12/04 01:16:46;;;;;;;;;;;22.00;63.40;;;;;;5097441;28;20604;-40
2023/12/04 01:19:12;;;;;;;;;;;22.00;63.40;;;;;;5096097;28;19971;-40
2023/12/04 01:21:39;;;;;;;;;;;22.00;63.40;;;;;;5097851;28;20485;-40
2023/12/04 01:24:05;;;;;;;;;;;22.00;63.30;;;;;;5101896;28;19950;-40
2023/12/04 01:26:32;;;;;;;;;;;22.00;63.40;;;;;;5099732;28;19998;-40
2023/12/04 01:28:58;;;;;;;;;;;22.00;63.40;;;;;;5095300;28;19919;-40
2023/12/04 01:31:24;;;;;;;;;;;22.00;63.40;;;;;;5096434;28;19914;-40
2023/12/04 01:33:50;;;;;;;;;;;22.00;63.30;;;;;;5096303;28;19975;-39
2023/12/04 01:36:16;;;;;;;;;;;22.00;63.30;;;;;;5096075;28;19969;-39
2023/12/04 01:38:41;;;;;;;;;;;22.00;63.30;;;;;;5097239;28;19999;-40
2023/12/04 01:41:07;;;;;;;;;;;22.00;63.30;;;;;;5093524;28;19924;-40
2023/12/04 01:43:34;;;;;;;;;;;22.00;63.30;;;;;;5093759;28;19947;-40
2023/12/04 01:46:01;;;;;;;;;;;22.00;63.20;;;;;;5093371;28;19931;-40
2023/12/04 01:48:26;;;;;;;;;;;22.00;63.50;;;;;;5099767;28;19912;-40
2023/12/04 01:50:52;;;;;;;;;;;22.00;63.80;;;;;;5092875;28;19912;-40
2023/12/04 01:53:18;;;;;;;;;;;22.00;63.90;;;;;;5096402;28;19911;-40
2023/12/04 01:55:45;;;;;;;;;;;22.00;63.90;;;;;;5093281;28;19908;-40
2023/12/04 01:58:10;;;;;;;;;;;22.00;63.90;;;;;;5095045;28;19915;-40
2023/12/04 02:00:36;;;;;;;;;;;22.00;63.90;;;;;;5092025;28;19915;-40
2023/12/04 02:03:02;;;;;;;;;;;22.00;63.80;;;;;;5097095;28;19957;-40
2023/12/04 02:05:28;;;;;;;;;;;22.00;63.80;;;;;;5077254;28;19919;-40
2023/12/04 02:07:55;;;;;;;;;;;22.00;63.80;;;;;;5094297;28;19989;-40
2023/12/04 02:10:22;;;;;;;;;;;22.00;63.70;;;;;;5099923;28;19912;-40
2023/12/04 02:12:48;;;;;;;;;;;22.00;63.60;;;;;;5097547;28;19908;-38
2023/12/04 02:15:14;;;;;;;;;;;22.00;63.50;;;;;;5099448;28;20173;-37
2023/12/04 02:17:40;;;;;;;;;;;22.00;63.40;;;;;;5105706;28;20065;-40
2023/12/04 02:20:06;;;;;;;;;;;22.00;63.50;;;;;;5098577;28;20143;-40
2023/12/04 02:22:32;;;;;;;;;;;22.00;63.60;;;;;;5098822;28;19969;-40
2023/12/04 02:25:00;;;;;;;;;;;22.00;63.60;;;;;;5094797;28;19934;-40
2023/12/04 02:27:27;;;;;;;;;;;22.00;63.60;;;;;;5097474;28;19954;-40
2023/12/04 02:29:53;;;;;;;;;;;22.00;63.70;;;;;;5111037;28;19918;-40
2023/12/04 02:32:19;;;;;;;;;;;22.00;63.60;;;;;;5094765;28;19927;-40
2023/12/04 02:34:46;;;;;;;;;;;22.00;63.60;;;;;;5089832;28;20665;-40
2023/12/04 02:37:13;;;;;;;;;;;22.00;63.50;;;;;;5115088;28;19908;-40
2023/12/04 02:39:38;;;;;;;;;;;22.00;63.60;;;;;;5093321;28;19908;-40
2023/12/04 02:42:05;;;;;;;;;;;22.00;63.70;;;;;;5094817;28;19927;-40
2023/12/04 02:44:31;;;;;;;;;;;22.10;63.70;;;;;;5104724;28;19919;-40
2023/12/04 02:46:58;;;;;;;;;;;22.00;63.70;;;;;;5100576;28;19981;-40
2023/12/04 02:49:24;;;;;;;;;;;22.00;63.70;;;;;;5096411;28;19925;-40
2023/12/04 02:51:50;;;;;;;;;;;21.90;63.50;;;;;;5097561;28;19916;-40
2023/12/04 02:54:17;;;;;;;;;;;22.00;63.50;;;;;;5090645;28;21333;-40
2023/12/04 02:56:43;;;;;;;;;;;22.00;63.40;;;;;;5087341;28;19918;-40
2023/12/04 02:59:10;;;;;;;;;;;22.00;64.20;;;;;;5089653;28;19945;-40
2023/12/04 03:01:36;;;;;;;;;;;22.00;63.50;;;;;;5092981;28;19928;-39
2023/12/04 03:04:02;;;;;;;;;;;22.00;63.70;;;;;;5091080;28;20315;-40
2023/12/04 03:06:29;;;;;;;;;;;22.00;63.80;;;;;;5095214;28;19954;-40
2023/12/04 03:08:55;;;;;;;;;;;22.00;63.90;;;;;;5100631;28;20008;-39
2023/12/04 03:11:22;;;;;;;;;;;21.90;63.80;;;;;;5094484;28;20544;-40
2023/12/04 03:13:48;;;;;;;;;;;21.90;63.70;;;;;;5094746;28;19916;-39
2023/12/04 03:16:18;;;;;;;;;;;22.00;63.60;;;;;;5093320;28;19912;-40
2023/12/04 03:18:44;;;;;;;;;;;22.00;63.60;;;;;;5095685;28;19973;-40
2023/12/04 03:21:11;;;;;;;;;;;22.00;63.60;;;;;;5092507;28;19924;-40
2023/12/04 03:23:37;;;;;;;;;;;22.00;63.70;;;;;;5090863;28;19946;-41
2023/12/04 03:26:03;;;;;;;;;;;22.00;63.70;;;;;;5098971;28;19908;-40
2023/12/04 03:28:29;;;;;;;;;;;22.00;63.60;;;;;;5091291;28;19912;-40
2023/12/04 03:30:55;;;;;;;;;;;21.90;63.60;;;;;;5091579;28;19912;-40
2023/12/04 03:33:21;;;;;;;;;;;21.90;63.60;;;;;;5096737;28;19922;-40
2023/12/04 03:35:47;;;;;;;;;;;21.90;63.50;;;;;;5096844;28;19911;-40
2023/12/04 03:38:13;;;;;;;;;;;22.00;63.50;;;;;;5096053;28;19956;-40
2023/12/04 03:40:39;;;;;;;;;;;22.00;63.60;;;;;;5087114;28;19907;-40
2023/12/04 03:43:06;;;;;;;;;;;22.00;63.70;;;;;;5090615;28;19916;-40
2023/12/04 03:45:32;;;;;;;;;;;21.90;63.70;;;;;;5097538;28;19927;-40
2023/12/04 03:48:00;;;;;;;;;;;21.90;63.70;;;;;;5095344;28;19995;-40
2023/12/04 03:50:26;;;;;;;;;;;21.90;63.70;;;;;;5073912;28;19958;-40
2023/12/04 03:52:52;;;;;;;;;;;21.90;63.60;;;;;;5099756;28;19916;-40
2023/12/04 03:55:19;;;;;;;;;;;21.90;63.40;;;;;;5092194;28;19923;-40
2023/12/04 03:57:45;;;;;;;;;;;22.00;63.50;;;;;;5090657;28;19946;-40
2023/12/04 04:00:11;;;;;;;;;;;21.90;63.40;;;;;;5090029;28;19911;-40
2023/12/04 04:02:40;;;;;;;;;;;21.90;63.40;;;;;;5094087;28;19920;-40
2023/12/04 04:05:07;;;;;;;;;;;21.90;63.40;;;;;;5091537;28;19918;-40
2023/12/04 04:07:33;;;;;;;;;;;21.90;63.30;;;;;;5087797;28;19909;-40
2023/12/04 04:09:58;;;;;;;;;;;21.90;63.40;;;;;;5091416;28;19919;-40
2023/12/04 04:12:24;;;;;;;;;;;21.90;63.40;;;;;;5089930;28;19912;-40
2023/12/04 04:14:50;;;;;;;;;;;21.90;63.20;;;;;;5090017;28;20364;-40
2023/12/04 04:17:16;;;;;;;;;;;21.90;63.30;;;;;;5094823;28;19927;-40
2023/12/04 04:19:42;;;;;;;;;;;21.90;63.20;;;;;;5092515;28;19915;-40
2023/12/04 04:22:08;;;;;;;;;;;21.90;63.20;;;;;;5092032;28;20285;-40
2023/12/04 04:24:34;;;;;;;;;;;21.90;64.10;;;;;;5097669;28;19911;-40
2023/12/04 04:27:00;;;;;;;;;;;21.90;63.40;;;;;;5098199;28;19923;-40
2023/12/04 04:29:25;;;;;;;;;;;21.90;63.60;;;;;;5096687;28;19934;-40
2023/12/04 04:31:51;;;;;;;;;;;21.90;63.40;;;;;;5093552;28;19908;-40
2023/12/04 04:34:18;;;;;;;;;;;21.90;63.30;;;;;;5091001;28;19966;-40
2023/12/04 04:36:44;;;;;;;;;;;21.90;63.20;;;;;;5091069;28;19951;-40
2023/12/04 04:39:11;;;;;;;;;;;21.90;63.20;;;;;;5100304;28;20670;-40
2023/12/04 04:41:37;;;;;;;;;;;21.90;63.20;;;;;;5096558;28;19946;-39
2023/12/04 04:44:03;;;;;;;;;;;21.90;63.20;;;;;;5094314;28;19912;-40
2023/12/04 04:46:29;;;;;;;;;;;21.90;63.20;;;;;;5098171;28;19927;-39
2023/12/04 04:48:55;;;;;;;;;;;21.80;63.10;;;;;;5104594;28;19912;-40
2023/12/04 04:51:21;;;;;;;;;;;21.90;63.30;;;;;;5104594;28;20488;-40
2023/12/04 04:53:48;;;;;;;;;;;21.80;63.20;;;;;;5108001;28;19972;-39
2023/12/04 04:56:14;;;;;;;;;;;21.90;62.90;;;;;;5099015;28;19923;-40
2023/12/04 04:58:40;;;;;;;;;;;21.90;63.00;;;;;;5103121;28;19968;-39
2023/12/04 05:01:06;;;;;;;;;;;21.90;63.10;;;;;;5099672;28;20050;-40
2023/12/04 05:03:32;;;;;;;;;;;21.90;63.10;;;;;;5098343;28;19915;-38
2023/12/04 05:05:58;;;;;;;;;;;21.80;62.90;;;;;;5099903;28;19912;-39
2023/12/04 05:08:24;;;;;;;;;;;21.80;63.10;;;;;;5095066;28;19912;-39
2023/12/04 05:10:50;;;;;;;;;;;21.80;63.00;;;;;;5096495;28;19985;-39
2023/12/04 05:13:16;;;;;;;;;;;21.80;62.90;;;;;;5096908;28;19912;-40
2023/12/04 05:15:41;;;;;;;;;;;21.80;62.80;;;;;;5098462;28;19908;-39
2023/12/04 05:18:07;;;;;;;;;;;21.80;62.80;;;;;;5100697;28;19963;-40
2023/12/04 05:20:33;;;;;;;;;;;21.80;62.80;;;;;;5102264;28;19908;-40
2023/12/04 05:22:59;;;;;;;;;;;21.80;62.60;;;;;;5099580;28;19944;-39
2023/12/04 05:25:25;;;;;;;;;;;21.80;62.60;;;;;;5092563;28;19913;-39
2023/12/04 05:27:51;;;;;;;;;;;21.80;62.60;;;;;;5090107;28;19916;-41
2023/12/04 05:30:17;;;;;;;;;;;21.80;62.50;;;;;;5094822;28;20421;-40
2023/12/04 05:32:42;;;;;;;;;;;21.80;62.60;;;;;;5097131;28;19923;-40
2023/12/04 05:35:08;;;;;;;;;;;21.80;62.60;;;;;;5094996;28;19908;-40
2023/12/04 05:37:34;;;;;;;;;;;21.80;62.60;;;;;;5094563;28;19912;-40
2023/12/04 05:40:00;;;;;;;;;;;21.80;62.50;;;;;;5091557;28;19955;-40
2023/12/04 05:42:26;;;;;;;;;;;21.80;62.50;;;;;;5095948;28;20434;-40
2023/12/04 05:44:55;;;;;;;;;;;21.80;62.50;;;;;;5094976;28;20007;-40
2023/12/04 05:47:21;;;;;;;;;;;21.70;62.40;;;;;;5098856;28;19978;-40
2023/12/04 05:49:47;;;;;;;;;;;21.70;62.30;;;;;;5097778;28;19994;-40
2023/12/04 05:52:13;;;;;;;;;;;21.70;62.30;;;;;;5091626;28;19947;-40
2023/12/04 05:54:39;;;;;;;;;;;21.80;62.50;;;;;;5097869;28;19918;-40
2023/12/04 05:57:05;;;;;;;;;;;21.80;62.60;;;;;;5100044;28;19912;-40
2023/12/04 05:59:30;;;;;;;;;;;21.80;63.30;;;;;;5098596;28;20384;-40
2023/12/04 06:01:56;;;;;;;;;;;21.70;62.50;;;;;;5099385;28;19924;-40
2023/12/04 06:04:22;;;;;;;;;;;21.70;62.50;;;;;;5101576;28;19912;-39
2023/12/04 06:06:48;;;;;;;;;;;21.70;62.50;;;;;;5102114;28;19911;-40
2023/12/04 06:09:17;;;;;;;;;;;21.70;62.40;;;;;;5093900;28;19916;-39
2023/12/04 06:11:43;;;;;;;;;;;21.70;62.40;;;;;;5094639;28;19918;-40
2023/12/04 06:14:09;;;;;;;;;;;21.70;62.40;;;;;;5094377;28;19936;-40
2023/12/04 06:16:35;;;;;;;;;;;21.70;62.40;;;;;;5100831;28;20517;-40
2023/12/04 06:19:01;;;;;;;;;;;21.70;62.50;;;;;;5098905;28;19966;-40
2023/12/04 06:21:26;;;;;;;;;;;21.70;62.40;;;;;;5091649;28;19928;-40
2023/12/04 06:23:52;;;;;;;;;;;21.60;62.40;;;;;;5099806;28;19916;-40
2023/12/04 06:26:19;;;;;;;;;;;21.60;62.40;;;;;;5095185;28;19937;-40
2023/12/04 06:28:45;;;;;;;;;;;21.70;62.30;;;;;;5092839;28;19970;-40
2023/12/04 06:31:11;;;;;;;;;;;21.70;62.40;;;;;;5093828;28;19916;-40
2023/12/04 06:33:37;;;;;;;;;;;21.70;62.40;;;;;;5092148;28;19908;-40
2023/12/04 06:36:03;;;;;;;;;;;21.60;62.50;;;;;;5100120;28;20578;-40
2023/12/04 06:38:30;;;;;;;;;;;21.60;62.60;;;;;;5072879;28;19908;-40
2023/12/04 06:40:56;;;;;;;;;;;21.60;62.70;;;;;;5096836;28;19920;-40
2023/12/04 06:43:22;;;;;;;;;;;21.60;62.60;;;;;;5089787;28;19931;-40
2023/12/04 06:45:48;;;;;;;;;;;21.60;62.60;;;;;;5096088;28;19951;-40
2023/12/04 06:48:14;;;;;;;;;;;21.70;62.60;;;;;;5092894;28;19908;-40
2023/12/04 06:50:40;;;;;;;;;;;21.60;62.50;;;;;;5118489;27;20449;-40
2023/12/04 06:53:06;;;;;;;;;;;21.60;62.60;;;;;;5094999;28;19938;-40
2023/12/04 06:55:32;;;;;;;;;;;21.60;62.60;;;;;;5092386;28;19915;-41
2023/12/04 06:57:58;;;;;;;;;;;21.50;62.60;;;;;;5092575;28;19912;-40
2023/12/04 07:00:24;;;;;;;;;;;21.50;62.50;;;;;;5093639;28;20969;-40
2023/12/04 07:02:50;;;;;;;;;;;21.50;62.40;;;;;;5095433;28;20702;-40
2023/12/04 07:05:16;;;;;;;;;;;21.60;62.50;;;;;;5100991;28;19919;-39
2023/12/04 07:07:42;;;;;;;;;;;21.60;62.40;;;;;;5094430;28;19975;-40
2023/12/04 07:10:08;;;;;;;;;;;21.60;62.30;;;;;;5093999;28;19947;-40
2023/12/04 07:12:34;;;;;;;;;;;21.60;62.30;;;;;;5093313;28;19912;-40
2023/12/04 07:15:00;;;;;;;;;;;21.50;62.30;;;;;;5096414;28;19969;-40
2023/12/04 07:17:25;;;;;;;;;;;21.50;62.40;;;;;;5094399;28;19912;-40
2023/12/04 07:19:52;;;;;;;;;;;21.50;62.40;;;;;;5094593;28;19908;-40
2023/12/04 07:22:18;;;;;;;;;;;21.50;62.30;;;;;;5097955;28;19950;-40
2023/12/04 07:24:44;;;;;;;;;;;21.50;62.30;;;;;;5098523;28;19908;-40
2023/12/04 07:27:10;;;;;;;;;;;21.50;62.40;;;;;;5096680;28;20215;-40
2023/12/04 07:29:37;;;;;;;;;;;21.50;62.20;;;;;;5097763;28;19976;-40
2023/12/04 07:32:04;;;;;;;;;;;21.50;62.20;;;;;;5089940;28;19912;-39
2023/12/04 07:34:29;;;;;;;;;;;21.60;62.30;;;;;;5090006;28;19912;-40
2023/12/04 07:36:55;;;;;;;;;;;21.40;62.20;;;;;;5092582;28;19918;-40
2023/12/04 07:39:21;;;;;;;;;;;21.50;62.20;;;;;;5093445;28;19909;-40
2023/12/04 07:41:47;;;;;;;;;;;21.50;62.20;;;;;;5090337;28;20001;-40
2023/12/04 07:44:13;;;;;;;;;;;21.50;62.20;;;;;;5096364;28;19923;-40
2023/12/04 07:46:39;;;;;;;;;;;21.50;62.20;;;;;;5098885;28;19936;-40
2023/12/04 07:49:05;;;;;;;;;;;21.50;62.10;;;;;;5096214;28;20025;-40
2023/12/04 07:51:32;;;;;;;;;;;21.50;62.10;;;;;;5093977;28;19911;-40
2023/12/04 07:53:58;;;;;;;;;;;21.40;62.10;;;;;;5094779;28;19939;-40
2023/12/04 07:56:24;;;;;;;;;;;21.40;62.00;;;;;;5079865;28;19915;-41
2023/12/04 07:58:50;;;;;;;;;;;21.50;62.10;;;;;;5090009;28;19913;-40
2023/12/04 08:01:16;;;;;;;;;;;21.50;62.10;;;;;;5090244;28;19923;-40
2023/12/04 08:03:42;;;;;;;;;;;21.50;62.10;;;;;;5091755;28;19908;-40
2023/12/04 08:06:09;;;;;;;;;;;21.50;62.10;;;;;;5091106;28;19913;-40
2023/12/04 08:08:35;;;;;;;;;;;21.50;62.10;;;;;;5091533;28;19934;-39
2023/12/04 08:11:00;;;;;;;;;;;21.40;62.10;;;;;;5096378;28;19916;-40
2023/12/04 08:13:26;;;;;;;;;;;21.40;62.00;;;;;;5097099;28;19915;-39
2023/12/04 08:15:52;;;;;;;;;;;21.50;62.00;;;;;;5096793;28;19912;-39
2023/12/04 08:18:18;;;;;;;;;;;21.50;62.10;;;;;;5096466;28;19934;-40
2023/12/04 08:20:44;;;;;;;;;;;21.50;62.00;;;;;;5095336;28;19914;-37
2023/12/04 08:23:10;;;;;;;;;;;21.40;62.10;;;;;;5097160;28;20320;-40
2023/12/04 08:25:39;;;;;;;;;;;21.40;62.30;;;;;;5096363;28;19919;-40
2023/12/04 08:28:05;;;;;;;;;;;21.40;62.30;;;;;;5103136;28;20003;-40
2023/12/04 08:30:31;;;;;;;;;;;21.40;62.30;;;;;;5102867;28;20536;-40
2023/12/04 08:32:57;;;;;;;;;;;21.50;62.20;;;;;;5098347;28;19987;-40
2023/12/04 08:35:23;;;;;;;;;;;21.50;62.20;;;;;;5099952;28;20276;-40
2023/12/04 08:37:49;;;;;;;;;;;21.50;62.20;;;;;;5090718;28;19911;-41
2023/12/04 08:40:15;;;;;;;;;;;21.50;62.10;;;;;;5103136;28;19912;-40
2023/12/04 08:42:40;;;;;;;;;;;21.40;62.00;;;;;;5097402;28;19930;-40
2023/12/04 08:45:08;;;;;;;;;;;21.50;62.00;;;;;;5093935;28;19916;-40
2023/12/04 08:47:34;;;;;;;;;;;21.50;61.90;;;;;;5095229;28;20483;-40
2023/12/04 08:50:00;;;;;;;;;;;21.50;61.90;;;;;;5099133;28;19983;-40
2023/12/04 08:52:26;;;;;;;;;;;21.50;62.00;;;;;;5106783;28;19982;-40
2023/12/04 08:54:53;;;;;;;;;;;21.50;61.90;;;;;;5096386;28;19999;-41
2023/12/04 08:57:19;;;;;;;;;;;21.40;62.00;;;;;;5101045;28;19962;-40
2023/12/04 08:59:46;;;;;;;;;;;21.40;61.90;;;;;;5091014;28;19912;-41
2023/12/04 09:02:12;;;;;;;;;;;21.40;62.00;;;;;;5092726;28;19916;-40
2023/12/04 09:04:38;;;;;;;;;;;21.40;61.90;;;;;;5098846;28;19919;-40
2023/12/04 09:07:03;;;;;;;;;;;21.40;61.90;;;;;;5102956;28;19919;-40
2023/12/04 09:09:29;;;;;;;;;;;21.50;61.90;;;;;;5105365;28;19908;-41
2023/12/04 09:11:55;;;;;;;;;;;21.40;61.80;;;;;;5105749;28;19959;-41
2023/12/04 09:14:21;;;;;;;;;;;21.40;61.80;;;;;;5104833;28;19916;-41
2023/12/04 09:16:47;;;;;;;;;;;21.40;61.80;;;;;;5096875;28;19916;-41
2023/12/04 09:19:13;;;;;;;;;;;21.40;61.80;;;;;;5094174;28;19927;-41
2023/12/04 09:21:39;;;;;;;;;;;21.40;61.70;;;;;;5093196;28;19916;-41
2023/12/04 09:24:05;;;;;;;;;;;21.40;61.70;;;;;;5094338;28;20042;-41
2023/12/04 09:26:31;;;;;;;;;;;21.40;61.70;;;;;;5099328;28;19923;-41
2023/12/04 09:28:57;;;;;;;;;;;21.40;61.60;;;;;;5104566;28;19920;-41
2023/12/04 09:31:23;;;;;;;;;;;21.40;61.70;;;;;;5098436;28;19958;-41
2023/12/04 09:33:49;;;;;;;;;;;21.30;61.70;;;;;;5102226;28;19912;-41
2023/12/04 09:36:14;;;;;;;;;;;21.40;61.70;;;;;;5099341;28;19915;-42
2023/12/04 09:38:40;;;;;;;;;;;21.40;61.70;;;;;;5095028;28;19930;-41
2023/12/04 09:41:06;;;;;;;;;;;21.40;61.60;;;;;;5097057;28;19934;-41
2023/12/04 09:43:32;;;;;;;;;;;21.40;61.50;;;;;;5095059;28;19915;-41
2023/12/04 09:46:01;;;;;;;;;;;21.30;61.60;;;;;;5101971;28;20039;-42
2023/12/04 09:48:27;;;;;;;;;;;21.30;61.60;;;;;;5104911;28;19911;-42
2023/12/04 09:50:53;;;;;;;;;;;21.30;61.50;;;;;;5098766;28;19935;-41
2023/12/04 09:53:19;;;;;;;;;;;21.30;61.60;;;;;;5104071;28;19975;-41
2023/12/04 09:55:47;;;;;;;;;;;21.40;61.50;;;;;;5096655;28;19944;-42
2023/12/04 09:58:13;;;;;;;;;;;21.40;61.50;;;;;;5103243;28;20459;-41
2023/12/04 10:00:39;;;;;;;;;;;21.40;61.50;;;;;;5097284;28;19915;-41
2023/12/04 10:03:05;;;;;;;;;;;21.30;61.50;;;;;;5095853;28;19924;-41
2023/12/04 10:05:31;;;;;;;;;;;21.30;61.50;;;;;;5102127;28;19916;-41
2023/12/04 10:07:57;;;;;;;;;;;21.30;61.50;;;;;;5102688;28;20002;-40
2023/12/04 10:10:23;;;;;;;;;;;21.30;61.50;;;;;;5101571;28;19919;-41
2023/12/04 10:12:49;;;;;;;;;;;21.40;61.70;;;;;;5097245;28;19912;-41
2023/12/04 10:15:16;;;;;;;;;;;21.40;61.70;;;;;;5097907;28;19912;-40
2023/12/04 10:17:43;;;;;;;;;;;21.30;61.60;;;;;;5091706;28;19916;-40
2023/12/04 10:20:12;;;;;;;;;;;21.20;61.60;;;;;;5096060;28;19908;-41
2023/12/04 10:22:39;;;;;;;;;;;21.30;61.70;;;;;;5097338;28;19970;-41
2023/12/04 10:25:14;;;;;;;;;;;21.30;61.70;;;;;;5099222;28;19912;-40
2023/12/04 10:27:40;;;;;;;;;;;21.30;61.60;;;;;;5099607;28;19967;-41
2023/12/04 10:30:07;;;;;;;;;;;21.30;61.60;;;;;;5097599;28;20029;-40
2023/12/04 10:32:36;;;;;;;;;;;21.30;61.50;;;;;;5091875;28;19935;-40
2023/12/04 10:35:03;;;;;;;;;;;21.20;61.50;;;;;;5097863;28;19908;-40
2023/12/04 10:37:31;;;;;;;;;;;21.20;61.50;;;;;;5099499;28;20007;-40
2023/12/04 10:39:57;;;;;;;;;;;21.20;61.50;;;;;;5095651;28;19916;-41
2023/12/04 10:42:27;;;;;;;;;;;21.20;61.50;;;;;;5097457;28;19916;-41
2023/12/04 10:44:54;;;;;;;;;;;21.30;61.40;;;;;;5094483;28;20011;-41
2023/12/04 10:47:21;;;;;;;;;;;21.30;61.50;;;;;;5101621;28;19916;-41
2023/12/04 10:49:48;;;;;;;;;;;21.20;61.40;;;;;;5087850;28;20479;-41
2023/12/04 10:52:14;;;;;;;;;;;21.20;61.50;;;;;;5101814;28;19923;-42
2023/12/04 10:54:40;;;;;;;;;;;21.10;61.50;;;;;;5099524;28;19912;-41
2023/12/04 10:57:06;;;;;;;;;;;21.20;61.50;;;;;;5095186;28;19919;-41
2023/12/04 10:59:32;;;;;;;;;;;21.20;61.50;;;;;;5104760;28;19958;-41
2023/12/04 11:01:59;;;;;;;;;;;21.30;61.60;;;;;;5099287;28;20003;-41
2023/12/04 11:04:26;;;;;;;;;;;21.30;61.50;;;;;;5103642;28;19915;-41
2023/12/04 11:06:52;;;;;;;;;;;21.20;61.40;;;;;;5096239;28;19912;-40
2023/12/04 11:09:18;;;;;;;;;;;21.20;61.50;;;;;;5099063;28;19938;-40
2023/12/04 11:11:44;;;;;;;;;;;21.10;61.60;;;;;;5101952;28;19918;-41
2023/12/04 11:14:10;;;;;;;;;;;21.10;61.50;;;;;;5072749;28;19962;-40
2023/12/04 11:16:36;;;;;;;;;;;21.20;61.50;;;;;;5119819;27;19996;-41
2023/12/04 11:19:14;;;;;;;;;;;21.20;61.50;;;;;;5099329;28;19911;-40
2023/12/04 11:21:40;;;;;;;;;;;21.20;61.40;;;;;;5103962;28;19998;-41
2023/12/04 11:24:06;;;;;;;;;;;21.20;61.40;;;;;;5093117;28;19956;-40
2023/12/04 11:26:32;;;;;;;;;;;21.10;61.50;;;;;;5112634;27;19911;-40
2023/12/04 11:28:58;;;;;;;;;;;21.10;61.50;;;;;;5082487;28;19912;-40
2023/12/04 11:31:24;;;;;;;;;;;21.10;61.50;;;;;;5096037;28;19904;-41
2023/12/04 11:33:50;;;;;;;;;;;21.20;61.70;;;;;;5098675;28;19912;-40
2023/12/04 11:36:16;;;;;;;;;;;21.10;61.70;;;;;;5100337;28;19912;-40
2023/12/04 11:38:49;;;;;;;;;;;21.20;61.80;;;;;;5100295;28;19904;-40
2023/12/04 11:41:21;;;;;;;;;;;21.10;61.80;;;;;;5098595;28;19920;-41
2023/12/04 11:43:47;;;;;;;;;;;21.10;61.90;;;;;;5096704;28;19911;-41
2023/12/04 11:46:25;;;;;;;;;;;21.10;61.80;;;;;;5088667;28;19920;-41
2023/12/04 11:48:51;;;;;;;;;;;21.20;61.80;;;;;;5095989;28;19915;-41
2023/12/04 11:51:36;;;;;;;;;;;21.20;61.90;;;;;;5111494;28;19938;-41
2023/12/04 11:54:04;;;;;;;;;;;21.20;61.80;;;;;;5102525;28;19919;-41
2023/12/04 11:56:30;;;;;;;;;;;21.10;61.90;;;;;;5099512;28;19985;-41
2023/12/04 11:59:06;;;;;;;;;;;21.10;62.10;;;;;;5114884;28;19970;-41
2023/12/04 12:01:38;;;;;;;;;;;21.00;62.00;;;;;;5097670;28;19915;-41
2023/12/04 12:04:05;;;;;;;;;;;21.10;61.90;;;;;;5075620;28;19979;-41
2023/12/04 12:06:31;;;;;;;;;;;21.20;62.10;;;;;;5098361;28;19915;-41
2023/12/04 12:08:57;;;;;;;;;;;21.20;62.00;;;;;;5092396;28;19916;-41
2023/12/04 12:11:23;;;;;;;;;;;21.10;62.10;;;;;;5096055;28;19934;-42
2023/12/04 12:13:49;;;;;;;;;;;21.00;62.10;;;;;;5115832;28;19912;-40
2023/12/04 12:16:15;;;;;;;;;;;21.00;62.20;;;;;;5099855;28;19935;-41
2023/12/04 12:18:41;;;;;;;;;;;21.00;62.30;;;;;;5093117;28;19920;-41
2023/12/04 12:21:07;;;;;;;;;;;21.10;62.40;;;;;;5105590;28;19912;-41
2023/12/04 12:23:33;;;;;;;;;;;21.20;62.50;;;;;;5099262;28;19914;-41
2023/12/04 12:25:59;;;;;;;;;;;21.10;62.40;;;;;;5095632;28;19911;-41
2023/12/04 12:28:25;;;;;;;;;;;21.10;62.50;;;;;;5100824;28;20451;-41
2023/12/04 12:30:53;;;;;;;;;;;21.00;62.60;;;;;;5100876;28;19934;-41
2023/12/04 12:33:19;;;;;;;;;;;21.00;62.70;;;;;;5101524;28;19911;-41
2023/12/04 12:35:45;;;;;;;;;;;21.00;62.90;;;;;;5114046;28;19912;-41
2023/12/04 12:38:11;;;;;;;;;;;21.10;63.00;;;;;;5113709;28;19919;-41
2023/12/04 12:40:37;;;;;;;;;;;21.10;63.10;;;;;;5095947;28;19912;-41
2023/12/04 12:43:08;;;;;;;;;;;21.10;63.20;;;;;;5097372;28;20027;-41
2023/12/04 12:45:40;;;;;;;;;;;21.10;63.10;;;;;;5099123;28;19915;-42
2023/12/04 12:48:06;;;;;;;;;;;21.00;63.40;;;;;;5096514;28;19994;-42
2023/12/04 12:50:31;;;;;;;;;;;21.00;64.00;;;;;;5098387;28;19919;-41
2023/12/04 12:52:57;;;;;;;;;;;21.00;64.20;;;;;;5099346;28;19943;-43
2023/12/04 12:55:26;;;;;;;;;;;21.10;64.40;;;;;;5096313;28;19908;-41
2023/12/04 12:57:52;;;;;;;;;;;21.10;64.50;;;;;;5099751;28;19915;-40
2023/12/04 13:00:19;;;;;;;;;;;21.10;64.70;;;;;;5096336;28;19935;-41
2023/12/04 13:02:45;;;;;;;;;;;21.10;65.30;;;;;;5100268;28;19936;-41
2023/12/04 13:05:11;;;;;;;;;;;21.00;65.50;;;;;;5104030;28;19985;-41
2023/12/04 13:07:37;;;;;;;;;;;21.00;65.70;;;;;;5097973;28;19919;-41
2023/12/04 13:10:04;;;;;;;;;;;21.10;66.30;;;;;;5103169;28;19908;-41
2023/12/04 13:12:31;;;;;;;;;;;21.10;66.50;;;;;;5097160;28;19911;-41
2023/12/04 13:14:57;;;;;;;;;;;21.20;67.00;;;;;;5093893;28;19922;-41
2023/12/04 13:17:22;;;;;;;;;;;21.10;68.70;;;;;;5102610;28;19947;-42
2023/12/04 13:19:48;;;;;;;;;;;21.10;70.90;;;;;;5097991;28;19930;-42
2023/12/04 13:22:14;;;;;;;;;;;21.00;67.20;;;;;;5102264;28;19975;-42
2023/12/04 13:24:41;;;;;;;;;;;21.00;68.10;;;;;;5103081;28;19912;-42
2023/12/04 13:27:08;;;;;;;;;;;21.00;68.20;;;;;;5100737;28;19912;-41
2023/12/04 13:29:33;;;;;;;;;;;21.10;68.40;;;;;;5094740;28;19908;-41
2023/12/04 13:31:59;;;;;;;;;;;21.10;68.50;;;;;;5098845;28;19919;-41
2023/12/04 13:34:25;;;;;;;;;;;21.10;68.70;;;;;;5092498;28;19912;-41
2023/12/04 13:36:51;;;;;;;;;;;21.00;68.70;;;;;;5095665;28;19911;-41
2023/12/04 13:39:19;;;;;;;;;;;21.00;68.80;;;;;;5099212;28;19908;-41
2023/12/04 13:44:29;;;;;;;;;;;21.00;69.00;;;;;;5094289;28;19916;-41
2023/12/04 13:46:56;;;;;;;;;;;21.10;69.20;;;;;;5095951;28;19912;-40
2023/12/04 13:49:22;;;;;;;;;;;21.10;69.30;;;;;;5094471;28;19908;-40
2023/12/04 13:51:49;;;;;;;;;;;21.10;69.50;;;;;;5096895;28;19908;-40
2023/12/04 13:54:21;;;;;;;;;;;21.00;69.70;;;;;;5103197;28;19946;-40
2023/12/04 13:56:53;;;;;;;;;;;21.00;69.90;;;;;;5097783;28;20430;-41
2023/12/04 13:59:21;;;;;;;;;;;21.00;70.00;;;;;;5099732;28;19987;-40
2023/12/04 14:01:47;;;;;;;;;;;21.10;70.20;;;;;;5102112;28;19916;-41
2023/12/04 14:04:13;;;;;;;;;;;21.10;70.30;;;;;;5098071;28;20471;-40
2023/12/04 14:06:39;;;;;;;;;;;21.10;70.30;;;;;;5099698;28;19908;-40
2023/12/04 14:09:10;;;;;;;;;;;21.00;70.50;;;;;;5098275;28;20806;-41
2023/12/04 14:11:36;;;;;;;;;;;21.00;70.70;;;;;;5101289;28;19916;-40
2023/12/04 14:14:03;;;;;;;;;;;21.00;70.70;;;;;;5096343;28;19907;-41